createdAt,value
2023-05-13T00:00:12.951Z,0.00
2023-05-13T00:01:12.940Z,0.00
2023-05-13T00:02:12.950Z,0.00
2023-05-13T00:03:12.993Z,0.00
2023-05-13T00:04:12.910Z,0.00
2023-05-13T00:05:12.891Z,0.00
2023-05-13T00:06:13.005Z,0.00
2023-05-13T00:07:12.861Z,0.00
2023-05-13T00:08:12.891Z,0.00
2023-05-13T00:09:12.827Z,0.00
2023-05-13T00:10:12.837Z,0.00
2023-05-13T00:11:12.896Z,0.00
2023-05-13T00:12:12.816Z,0.00
2023-05-13T00:13:12.778Z,0.00
2023-05-13T00:14:12.769Z,0.00
2023-05-13T00:15:12.774Z,0.00
2023-05-13T00:16:12.785Z,0.00
2023-05-13T00:17:12.724Z,0.00
2023-05-13T00:18:12.729Z,0.00
2023-05-13T00:19:12.805Z,0.00
2023-05-13T00:20:12.682Z,0.00
2023-05-13T00:21:12.668Z,0.00
2023-05-13T00:22:12.661Z,0.00
2023-05-13T00:23:12.997Z,0.00
2023-05-13T00:24:12.638Z,0.00
2023-05-13T00:25:12.627Z,0.00
2023-05-13T00:26:12.605Z,0.00
2023-05-13T00:27:12.622Z,0.00
2023-05-13T00:28:12.578Z,0.00
2023-05-13T00:29:12.564Z,0.00
2023-05-13T00:30:12.564Z,0.00
2023-05-13T00:31:12.555Z,0.00
2023-05-13T00:32:12.530Z,0.00
2023-05-13T00:33:12.508Z,0.00
2023-05-13T00:34:12.498Z,0.00
2023-05-13T00:35:12.495Z,0.00
2023-05-13T00:36:12.533Z,0.00
2023-05-13T00:37:12.453Z,0.00
2023-05-13T00:38:12.449Z,0.00
2023-05-13T00:39:12.434Z,0.00
2023-05-13T00:40:12.420Z,0.00
2023-05-13T00:41:12.408Z,0.00
2023-05-13T00:42:12.382Z,0.00
2023-05-13T00:43:12.530Z,0.00
2023-05-13T00:44:14.400Z,0.00
2023-05-13T00:45:12.353Z,0.00
2023-05-13T00:46:12.411Z,0.00
2023-05-13T00:47:12.334Z,0.00
2023-05-13T00:48:12.347Z,0.00
2023-05-13T00:49:12.301Z,0.00
2023-05-13T00:50:12.291Z,0.00
2023-05-13T00:51:12.270Z,0.00
2023-05-13T00:52:12.263Z,0.00
2023-05-13T00:53:12.248Z,0.00
2023-05-13T00:54:12.241Z,0.00
2023-05-13T00:55:12.225Z,0.00
2023-05-13T00:56:12.207Z,0.00
2023-05-13T00:57:12.198Z,0.00
2023-05-13T00:58:12.275Z,0.00
2023-05-13T00:59:12.186Z,0.00
2023-05-13T01:00:12.150Z,0.00
2023-05-13T01:01:12.293Z,0.00
2023-05-13T01:02:12.385Z,0.00
2023-05-13T01:03:12.211Z,0.00
2023-05-13T01:04:12.109Z,0.00
2023-05-13T01:05:12.105Z,0.00
2023-05-13T01:06:12.062Z,0.00
2023-05-13T01:07:12.051Z,0.00
2023-05-13T01:08:12.039Z,0.00
2023-05-13T01:09:12.029Z,0.00
2023-05-13T01:10:12.065Z,0.00
2023-05-13T01:11:12.008Z,0.00
2023-05-13T01:12:12.016Z,0.00
2023-05-13T01:13:11.978Z,0.00
2023-05-13T01:14:11.969Z,0.00
2023-05-13T01:15:11.977Z,0.00
2023-05-13T01:16:11.998Z,0.00
2023-05-13T01:17:11.923Z,0.00
2023-05-13T01:18:11.991Z,0.00
2023-05-13T01:19:12.033Z,0.00
2023-05-13T01:20:11.885Z,0.00
2023-05-13T01:21:11.872Z,0.00
2023-05-13T01:22:11.868Z,0.00
2023-05-13T01:23:11.838Z,0.00
2023-05-13T01:24:11.888Z,0.00
2023-05-13T01:25:11.828Z,0.00
2023-05-13T01:26:11.998Z,0.00
2023-05-13T01:27:11.782Z,0.00
2023-05-13T01:28:11.776Z,0.00
2023-05-13T01:29:11.752Z,0.00
2023-05-13T01:30:11.747Z,0.00
2023-05-13T01:31:11.862Z,0.00
2023-05-13T01:32:11.711Z,0.00
2023-05-13T01:33:11.760Z,0.00
2023-05-13T01:34:11.696Z,0.00
2023-05-13T01:35:11.676Z,0.00
2023-05-13T01:36:11.668Z,0.00
2023-05-13T01:37:11.652Z,0.00
2023-05-13T01:38:11.635Z,0.00
2023-05-13T01:39:11.631Z,0.00
2023-05-13T01:40:24.108Z,0.00
2023-05-13T01:41:12.647Z,0.00
2023-05-13T01:42:11.581Z,0.00
2023-05-13T01:43:11.572Z,0.00
2023-05-13T01:44:11.556Z,0.00
2023-05-13T01:45:11.537Z,0.00
2023-05-13T01:46:11.560Z,0.00
2023-05-13T01:47:11.547Z,0.00
2023-05-13T01:48:11.499Z,0.00
2023-05-13T01:49:11.637Z,0.00
2023-05-13T01:50:11.476Z,0.00
2023-05-13T01:51:11.466Z,0.00
2023-05-13T01:52:11.446Z,0.00
2023-05-13T01:53:11.434Z,0.00
2023-05-13T01:54:11.420Z,0.00
2023-05-13T01:55:11.413Z,0.00
2023-05-13T01:56:11.395Z,0.00
2023-05-13T01:57:11.380Z,0.00
2023-05-13T01:58:11.366Z,0.00
2023-05-13T01:59:11.368Z,0.00
2023-05-13T02:00:11.358Z,0.00
2023-05-13T02:01:11.339Z,0.00
2023-05-13T02:02:11.388Z,0.00
2023-05-13T02:03:11.436Z,0.00
2023-05-13T02:04:11.286Z,0.00
2023-05-13T02:05:11.286Z,0.00
2023-05-13T02:06:11.301Z,0.00
2023-05-13T02:07:11.246Z,0.00
2023-05-13T02:08:11.236Z,0.00
2023-05-13T02:09:11.223Z,0.00
2023-05-13T02:10:11.214Z,0.00
2023-05-13T02:11:11.195Z,0.00
2023-05-13T02:12:11.179Z,0.00
2023-05-13T02:13:11.171Z,0.00
2023-05-13T02:14:11.155Z,0.00
2023-05-13T02:15:11.149Z,0.00
2023-05-13T02:16:11.157Z,0.00
2023-05-13T02:17:11.117Z,0.00
2023-05-13T02:18:11.197Z,0.00
2023-05-13T02:19:11.237Z,0.00
2023-05-13T02:20:11.077Z,0.00
2023-05-13T02:21:11.068Z,0.00
2023-05-13T02:22:11.047Z,0.00
2023-05-13T02:23:11.028Z,0.00
2023-05-13T02:24:11.014Z,0.00
2023-05-13T02:25:11.012Z,0.00
2023-05-13T02:26:10.998Z,0.00
2023-05-13T02:27:10.984Z,0.00
2023-05-13T02:28:10.967Z,0.00
2023-05-13T02:29:10.965Z,0.00
2023-05-13T02:30:10.944Z,0.00
2023-05-13T02:31:10.931Z,0.00
2023-05-13T02:32:10.973Z,0.00
2023-05-13T02:33:10.949Z,0.00
2023-05-13T02:34:10.885Z,0.00
2023-05-13T02:35:10.903Z,0.00
2023-05-13T02:36:10.861Z,0.00
2023-05-13T02:37:10.850Z,0.00
2023-05-13T02:38:10.831Z,0.00
2023-05-13T02:39:10.818Z,0.00
2023-05-13T02:40:11.063Z,0.00
2023-05-13T02:41:10.822Z,0.00
2023-05-13T02:42:10.780Z,0.00
2023-05-13T02:43:10.769Z,0.00
2023-05-13T02:44:10.756Z,0.00
2023-05-13T02:45:10.746Z,0.00
2023-05-13T02:46:10.762Z,0.00
2023-05-13T02:47:10.712Z,0.00
2023-05-13T02:48:10.699Z,0.00
2023-05-13T02:49:10.685Z,0.00
2023-05-13T02:50:10.664Z,0.00
2023-05-13T02:51:10.676Z,0.00
2023-05-13T02:52:10.639Z,0.00
2023-05-13T02:53:10.632Z,0.00
2023-05-13T02:54:10.618Z,0.00
2023-05-13T02:55:10.647Z,0.00
2023-05-13T02:56:10.595Z,0.00
2023-05-13T02:57:10.593Z,0.00
2023-05-13T02:58:10.565Z,0.00
2023-05-13T02:59:10.549Z,0.00
2023-05-13T03:00:10.543Z,0.00
2023-05-13T03:01:10.546Z,0.00
2023-05-13T03:02:10.554Z,0.00
2023-05-13T03:03:10.927Z,0.00
2023-05-13T03:04:10.482Z,0.00
2023-05-13T03:05:10.468Z,0.00
2023-05-13T03:06:10.459Z,0.00
2023-05-13T03:07:10.465Z,0.00
2023-05-13T03:08:10.423Z,0.00
2023-05-13T03:09:10.414Z,0.00
2023-05-13T03:10:10.416Z,0.00
2023-05-13T03:11:10.412Z,0.00
2023-05-13T03:12:10.377Z,0.00
2023-05-13T03:13:10.363Z,0.00
2023-05-13T03:14:10.351Z,0.00
2023-05-13T03:15:10.334Z,0.00
2023-05-13T03:16:10.357Z,0.00
2023-05-13T03:17:10.309Z,0.00
2023-05-13T03:18:10.300Z,0.00
2023-05-13T03:19:10.460Z,0.00
2023-05-13T03:20:10.283Z,0.00
2023-05-13T03:21:10.250Z,0.00
2023-05-13T03:22:10.245Z,4.00
2023-05-13T03:23:10.256Z,4.00
2023-05-13T03:24:10.566Z,0.00
2023-05-13T03:25:10.204Z,0.00
2023-05-13T03:26:10.189Z,4.00
2023-05-13T03:27:10.177Z,4.00
2023-05-13T03:28:10.158Z,0.00
2023-05-13T03:29:10.192Z,4.00
2023-05-13T03:30:10.140Z,4.00
2023-05-13T03:31:10.150Z,4.00
2023-05-13T03:32:10.109Z,4.00
2023-05-13T03:33:10.095Z,8.00
2023-05-13T03:34:10.081Z,4.00
2023-05-13T03:35:10.068Z,4.00
2023-05-13T03:36:10.060Z,8.00
2023-05-13T03:37:10.042Z,8.00
2023-05-13T03:38:10.031Z,8.00
2023-05-13T03:39:10.039Z,12.00
2023-05-13T03:40:10.001Z,12.00
2023-05-13T03:41:09.993Z,12.00
2023-05-13T03:42:09.978Z,16.00
2023-05-13T03:43:10.152Z,16.00
2023-05-13T03:44:09.950Z,16.00
2023-05-13T03:45:09.928Z,16.00
2023-05-13T03:46:09.925Z,20.00
2023-05-13T03:47:09.945Z,20.00
2023-05-13T03:48:09.905Z,24.00
2023-05-13T03:49:09.879Z,28.00
2023-05-13T03:50:09.868Z,28.00
2023-05-13T03:51:09.859Z,32.00
2023-05-13T03:52:09.843Z,36.00
2023-05-13T03:53:09.824Z,40.00
2023-05-13T03:54:09.812Z,44.00
2023-05-13T03:55:09.828Z,48.00
2023-05-13T03:56:09.790Z,52.00
2023-05-13T03:57:09.772Z,60.00
2023-05-13T03:58:09.758Z,64.00
2023-05-13T03:59:09.742Z,68.00
2023-05-13T04:00:09.728Z,76.00
2023-05-13T04:01:09.720Z,84.00
2023-05-13T04:02:09.725Z,92.00
2023-05-13T04:03:09.773Z,104.00
2023-05-13T04:04:09.700Z,116.00
2023-05-13T04:05:09.804Z,128.00
2023-05-13T04:06:09.656Z,140.00
2023-05-13T04:07:09.645Z,148.00
2023-05-13T04:08:09.629Z,160.00
2023-05-13T04:09:09.614Z,164.00
2023-05-13T04:10:09.597Z,168.00
2023-05-13T04:11:09.603Z,172.00
2023-05-13T04:12:09.571Z,172.00
2023-05-13T04:13:09.561Z,176.00
2023-05-13T04:14:09.553Z,180.00
2023-05-13T04:15:09.550Z,184.00
2023-05-13T04:16:09.526Z,184.00
2023-05-13T04:17:09.881Z,188.00
2023-05-13T04:18:09.498Z,192.00
2023-05-13T04:19:09.597Z,196.00
2023-05-13T04:20:09.470Z,204.00
2023-05-13T04:21:09.456Z,212.00
2023-05-13T04:22:09.439Z,216.00
2023-05-13T04:23:09.426Z,228.00
2023-05-13T04:24:09.421Z,232.00
2023-05-13T04:25:09.403Z,236.00
2023-05-13T04:26:09.389Z,232.00
2023-05-13T04:27:09.411Z,232.00
2023-05-13T04:28:09.364Z,236.00
2023-05-13T04:29:09.345Z,236.00
2023-05-13T04:30:09.354Z,240.00
2023-05-13T04:31:09.324Z,244.00
2023-05-13T04:32:09.355Z,252.00
2023-05-13T04:33:09.331Z,260.00
2023-05-13T04:34:09.285Z,268.00
2023-05-13T04:35:09.283Z,268.00
2023-05-13T04:36:09.262Z,272.00
2023-05-13T04:37:09.237Z,280.00
2023-05-13T04:38:09.231Z,284.00
2023-05-13T04:39:09.209Z,288.00
2023-05-13T04:40:09.201Z,284.00
2023-05-13T04:41:09.180Z,292.00
2023-05-13T04:42:09.176Z,296.00
2023-05-13T04:43:09.309Z,300.00
2023-05-13T04:44:09.148Z,304.00
2023-05-13T04:45:09.132Z,304.00
2023-05-13T04:46:09.159Z,312.00
2023-05-13T04:47:09.104Z,316.00
2023-05-13T04:48:09.115Z,320.00
2023-05-13T04:49:09.075Z,336.00
2023-05-13T04:50:09.066Z,360.00
2023-05-13T04:51:09.055Z,380.00
2023-05-13T04:52:09.036Z,400.00
2023-05-13T04:53:09.031Z,404.00
2023-05-13T04:54:09.015Z,408.00
2023-05-13T04:55:09.001Z,408.00
2023-05-13T04:56:08.991Z,412.00
2023-05-13T04:57:08.975Z,432.00
2023-05-13T04:58:08.964Z,452.00
2023-05-13T04:59:08.978Z,484.00
2023-05-13T05:00:08.934Z,520.00
2023-05-13T05:01:08.935Z,556.00
2023-05-13T05:02:08.912Z,604.00
2023-05-13T05:03:09.055Z,644.00
2023-05-13T05:04:08.948Z,684.00
2023-05-13T05:05:08.859Z,736.00
2023-05-13T05:06:08.852Z,780.00
2023-05-13T05:07:08.836Z,828.00
2023-05-13T05:08:08.820Z,916.00
2023-05-13T05:09:08.809Z,1028.00
2023-05-13T05:10:08.802Z,1128.00
2023-05-13T05:11:08.786Z,1204.00
2023-05-13T05:12:08.771Z,1256.00
2023-05-13T05:13:08.763Z,1288.00
2023-05-13T05:14:08.746Z,1308.00
2023-05-13T05:15:08.802Z,1328.00
2023-05-13T05:16:08.735Z,1312.00
2023-05-13T05:17:08.716Z,1312.00
2023-05-13T05:18:08.808Z,1320.00
2023-05-13T05:19:08.715Z,1324.00
2023-05-13T05:20:08.669Z,1336.00
2023-05-13T05:21:08.658Z,1312.00
2023-05-13T05:22:08.642Z,1296.00
2023-05-13T05:23:08.631Z,1252.00
2023-05-13T05:24:08.618Z,1228.00
2023-05-13T05:25:08.603Z,1208.00
2023-05-13T05:26:12.222Z,1196.00
2023-05-13T05:27:08.566Z,1196.00
2023-05-13T05:28:08.560Z,1180.00
2023-05-13T05:29:08.544Z,1152.00
2023-05-13T05:30:08.532Z,1136.00
2023-05-13T05:31:08.662Z,1112.00
2023-05-13T05:32:08.502Z,1088.00
2023-05-13T05:33:08.525Z,1084.00
2023-05-13T05:34:08.478Z,1084.00
2023-05-13T05:35:08.521Z,1056.00
2023-05-13T05:36:08.456Z,1024.00
2023-05-13T05:37:08.442Z,1008.00
2023-05-13T05:38:08.439Z,1000.00
2023-05-13T05:39:08.417Z,992.00
2023-05-13T05:40:08.404Z,984.00
2023-05-13T05:41:08.390Z,976.00
2023-05-13T05:42:08.372Z,972.00
2023-05-13T05:43:08.364Z,988.00
2023-05-13T05:44:08.341Z,1000.00
2023-05-13T05:45:08.332Z,1016.00
2023-05-13T05:46:08.360Z,1032.00
2023-05-13T05:47:08.333Z,1048.00
2023-05-13T05:48:08.324Z,1064.00
2023-05-13T05:49:08.288Z,1092.00
2023-05-13T05:50:08.273Z,1120.00
2023-05-13T05:51:08.252Z,1144.00
2023-05-13T05:52:08.245Z,1164.00
2023-05-13T05:53:08.220Z,1196.00
2023-05-13T05:54:08.210Z,1236.00
2023-05-13T05:55:08.199Z,1276.00
2023-05-13T05:56:08.181Z,1332.00
2023-05-13T05:57:08.175Z,1392.00
2023-05-13T05:58:08.156Z,1432.00
2023-05-13T05:59:08.146Z,1468.00
2023-05-13T06:00:08.128Z,1520.00
2023-05-13T06:01:08.124Z,1564.00
2023-05-13T06:02:08.174Z,1608.00
2023-05-13T06:03:08.218Z,1636.00
2023-05-13T06:04:08.185Z,1648.00
2023-05-13T06:05:08.057Z,1688.00
2023-05-13T06:06:08.055Z,1708.00
2023-05-13T06:07:08.067Z,1736.00
2023-05-13T06:08:08.021Z,1760.00
2023-05-13T06:09:08.013Z,1760.00
2023-05-13T06:10:08.373Z,1768.00
2023-05-13T06:11:07.987Z,1776.00
2023-05-13T06:12:07.970Z,1768.00
2023-05-13T06:13:07.969Z,1776.00
2023-05-13T06:14:07.937Z,1788.00
2023-05-13T06:15:07.933Z,1788.00
2023-05-13T06:16:07.969Z,1788.00
2023-05-13T06:17:07.899Z,1788.00
2023-05-13T06:18:07.945Z,1792.00
2023-05-13T06:19:08.065Z,1776.00
2023-05-13T06:20:07.861Z,1768.00
2023-05-13T06:21:07.850Z,1768.00
2023-05-13T06:22:07.835Z,1812.00
2023-05-13T06:23:07.822Z,1892.00
2023-05-13T06:24:07.823Z,1992.00
2023-05-13T06:25:07.796Z,2092.00
2023-05-13T06:26:07.779Z,2164.00
2023-05-13T06:27:07.769Z,2232.00
2023-05-13T06:28:07.754Z,2284.00
2023-05-13T06:29:07.751Z,2340.00
2023-05-13T06:30:07.728Z,2376.00
2023-05-13T06:31:07.772Z,2404.00
2023-05-13T06:32:07.693Z,2404.00
2023-05-13T06:33:07.748Z,2424.00
2023-05-13T06:34:07.671Z,2500.00
2023-05-13T06:35:07.690Z,2628.00
2023-05-13T06:36:07.654Z,2764.00
2023-05-13T06:37:07.635Z,2844.00
2023-05-13T06:38:07.730Z,2912.00
2023-05-13T06:39:07.608Z,3012.00
2023-05-13T06:40:07.589Z,3036.00
2023-05-13T06:41:07.577Z,2968.00
2023-05-13T06:42:07.562Z,3080.00
2023-05-13T06:43:07.552Z,3120.00
2023-05-13T06:44:07.866Z,3124.00
2023-05-13T06:45:07.516Z,3224.00
2023-05-13T06:46:07.510Z,3244.00
2023-05-13T06:47:07.546Z,3192.00
2023-05-13T06:48:07.535Z,3028.00
2023-05-13T06:49:07.479Z,2984.00
2023-05-13T06:50:07.451Z,2984.00
2023-05-13T06:51:07.863Z,2932.00
2023-05-13T06:52:07.437Z,2992.00
2023-05-13T06:53:07.425Z,2820.00
2023-05-13T06:54:07.402Z,2612.00
2023-05-13T06:55:07.423Z,2592.00
2023-05-13T06:56:07.378Z,2788.00
2023-05-13T06:57:07.411Z,2992.00
2023-05-13T06:58:07.350Z,3116.00
2023-05-13T06:59:07.340Z,3072.00
2023-05-13T07:00:07.325Z,3016.00
2023-05-13T07:01:07.337Z,2972.00
2023-05-13T07:02:07.303Z,2948.00
2023-05-13T07:03:07.359Z,2892.00
2023-05-13T07:04:07.314Z,2816.00
2023-05-13T07:05:08.676Z,2704.00
2023-05-13T07:06:07.267Z,2612.00
2023-05-13T07:07:07.252Z,2652.00
2023-05-13T07:08:07.211Z,2808.00
2023-05-13T07:09:08.592Z,2880.00
2023-05-13T07:10:07.186Z,2964.00
2023-05-13T07:11:07.173Z,3028.00
2023-05-13T07:12:07.163Z,3108.00
2023-05-13T07:13:07.174Z,3120.00
2023-05-13T07:14:07.144Z,3112.00
2023-05-13T07:15:07.120Z,3092.00
2023-05-13T07:16:07.107Z,3020.00
2023-05-13T07:17:07.123Z,2960.00
2023-05-13T07:18:07.168Z,2956.00
2023-05-13T07:19:07.117Z,2912.00
2023-05-13T07:20:07.045Z,2856.00
2023-05-13T07:21:07.039Z,2796.00
2023-05-13T07:22:07.025Z,2736.00
2023-05-13T07:23:07.047Z,2720.00
2023-05-13T07:24:06.998Z,2680.00
2023-05-13T07:25:07.009Z,2648.00
2023-05-13T07:26:06.969Z,2580.00
2023-05-13T07:27:06.954Z,2524.00
2023-05-13T07:28:06.939Z,2552.00
2023-05-13T07:29:06.929Z,2576.00
2023-05-13T07:30:07.014Z,2572.00
2023-05-13T07:31:06.958Z,2556.00
2023-05-13T07:32:06.907Z,2544.00
2023-05-13T07:33:06.883Z,2616.00
2023-05-13T07:34:06.880Z,2732.00
2023-05-13T07:35:06.855Z,2824.00
2023-05-13T07:36:06.856Z,2892.00
2023-05-13T07:37:06.835Z,2928.00
2023-05-13T07:38:06.813Z,2924.00
2023-05-13T07:39:07.157Z,2940.00
2023-05-13T07:40:06.786Z,2956.00
2023-05-13T07:41:06.779Z,2972.00
2023-05-13T07:42:06.757Z,2948.00
2023-05-13T07:43:06.746Z,2804.00
2023-05-13T07:44:06.730Z,2664.00
2023-05-13T07:45:06.716Z,2532.00
2023-05-13T07:46:06.701Z,2436.00
2023-05-13T07:47:06.721Z,2420.00
2023-05-13T07:48:06.709Z,2520.00
2023-05-13T07:49:06.677Z,2844.00
2023-05-13T07:50:06.661Z,3080.00
2023-05-13T07:51:06.653Z,3148.00
2023-05-13T07:52:06.638Z,2924.00
2023-05-13T07:53:06.621Z,2720.00
2023-05-13T07:54:06.619Z,2732.00
2023-05-13T07:55:06.624Z,2948.00
2023-05-13T07:56:06.579Z,3068.00
2023-05-13T07:57:06.573Z,3088.00
2023-05-13T07:58:06.553Z,3124.00
2023-05-13T07:59:06.536Z,3268.00
2023-05-13T08:00:06.533Z,3376.00
2023-05-13T08:01:06.518Z,3404.00
2023-05-13T08:02:06.526Z,3320.00
2023-05-13T08:03:06.578Z,3176.00
2023-05-13T08:04:06.644Z,3112.00
2023-05-13T08:05:06.606Z,3080.00
2023-05-13T08:06:06.444Z,3068.00
2023-05-13T08:07:06.457Z,2968.00
2023-05-13T08:08:06.425Z,3092.00
2023-05-13T08:09:06.427Z,3228.00
2023-05-13T08:10:06.409Z,3416.00
2023-05-13T08:11:06.413Z,3576.00
2023-05-13T08:12:06.366Z,3752.00
2023-05-13T08:13:06.372Z,3908.00
2023-05-13T08:14:06.699Z,4020.00
2023-05-13T08:15:06.337Z,4040.00
2023-05-13T08:16:06.340Z,3892.00
2023-05-13T08:17:06.304Z,3764.00
2023-05-13T08:18:06.396Z,3676.00
2023-05-13T08:19:06.382Z,3708.00
2023-05-13T08:20:06.263Z,3716.00
2023-05-13T08:21:06.252Z,3868.00
2023-05-13T08:22:06.238Z,3936.00
2023-05-13T08:23:06.231Z,3940.00
2023-05-13T08:24:06.208Z,4016.00
2023-05-13T08:25:06.221Z,4092.00
2023-05-13T08:26:06.182Z,4108.00
2023-05-13T08:27:06.194Z,4200.00
2023-05-13T08:28:06.175Z,4260.00
2023-05-13T08:29:06.145Z,4360.00
2023-05-13T08:30:06.162Z,4400.00
2023-05-13T08:31:06.135Z,4308.00
2023-05-13T08:32:06.141Z,4240.00
2023-05-13T08:33:06.115Z,4384.00
2023-05-13T08:34:06.077Z,4532.00
2023-05-13T08:35:06.066Z,4608.00
2023-05-13T08:36:06.049Z,4624.00
2023-05-13T08:37:06.041Z,4644.00
2023-05-13T08:38:06.024Z,4608.00
2023-05-13T08:39:06.012Z,4472.00
2023-05-13T08:40:06.005Z,4320.00
2023-05-13T08:41:05.985Z,4196.00
2023-05-13T08:42:05.974Z,4148.00
2023-05-13T08:43:05.982Z,4228.00
2023-05-13T08:44:05.944Z,4384.00
2023-05-13T08:45:05.936Z,4572.00
2023-05-13T08:46:05.932Z,4596.00
2023-05-13T08:47:05.908Z,4556.00
2023-05-13T08:48:05.994Z,4564.00
2023-05-13T08:49:05.874Z,4512.00
2023-05-13T08:50:05.871Z,4488.00
2023-05-13T08:51:05.852Z,4580.00
2023-05-13T08:52:05.847Z,4664.00
2023-05-13T08:53:05.832Z,4636.00
2023-05-13T08:54:05.818Z,4544.00
2023-05-13T08:55:05.802Z,4360.00
2023-05-13T08:56:05.787Z,4268.00
2023-05-13T08:57:05.777Z,4208.00
2023-05-13T08:58:06.018Z,4192.00
2023-05-13T08:59:05.786Z,4236.00
2023-05-13T09:00:05.741Z,4356.00
2023-05-13T09:01:05.777Z,4540.00
2023-05-13T09:02:06.013Z,4660.00
2023-05-13T09:03:05.735Z,4724.00
2023-05-13T09:04:05.678Z,4672.00
2023-05-13T09:05:05.683Z,4592.00
2023-05-13T09:06:06.013Z,4484.00
2023-05-13T09:07:05.639Z,4276.00
2023-05-13T09:08:05.629Z,4008.00
2023-05-13T09:09:05.875Z,3776.00
2023-05-13T09:10:05.600Z,3656.00
2023-05-13T09:11:05.591Z,3612.00
2023-05-13T09:12:05.571Z,3608.00
2023-05-13T09:13:05.560Z,3580.00
2023-05-13T09:14:05.586Z,3580.00
2023-05-13T09:15:05.557Z,3620.00
2023-05-13T09:16:05.549Z,3680.00
2023-05-13T09:17:05.508Z,3740.00
2023-05-13T09:18:05.638Z,3732.00
2023-05-13T09:19:05.602Z,3704.00
2023-05-13T09:20:05.559Z,3528.00
2023-05-13T09:21:05.447Z,3384.00
2023-05-13T09:22:05.425Z,3208.00
2023-05-13T09:23:05.421Z,2992.00
2023-05-13T09:24:05.402Z,2768.00
2023-05-13T09:25:05.397Z,2580.00
2023-05-13T09:26:05.376Z,2472.00
2023-05-13T09:27:05.362Z,2408.00
2023-05-13T09:28:05.346Z,2312.00
2023-05-13T09:29:05.329Z,2292.00
2023-05-13T09:30:05.325Z,2344.00
2023-05-13T09:31:05.411Z,2400.00
2023-05-13T09:32:05.300Z,2428.00
2023-05-13T09:33:05.432Z,2428.00
2023-05-13T09:34:05.261Z,2260.00
2023-05-13T09:35:05.249Z,2324.00
2023-05-13T09:36:05.239Z,2572.00
2023-05-13T09:37:05.235Z,2776.00
2023-05-13T09:38:05.422Z,2916.00
2023-05-13T09:39:05.193Z,2884.00
2023-05-13T09:40:05.189Z,2796.00
2023-05-13T09:41:05.172Z,2808.00
2023-05-13T09:42:05.738Z,2760.00
2023-05-13T09:43:05.143Z,2780.00
2023-05-13T09:44:05.182Z,2708.00
2023-05-13T09:45:05.129Z,2592.00
2023-05-13T09:46:05.156Z,2540.00
2023-05-13T09:47:05.170Z,2368.00
2023-05-13T09:48:05.104Z,2336.00
2023-05-13T09:49:05.063Z,2364.00
2023-05-13T09:50:05.039Z,2320.00
2023-05-13T09:51:05.037Z,2260.00
2023-05-13T09:52:05.018Z,2236.00
2023-05-13T09:53:05.002Z,2168.00
2023-05-13T09:54:04.982Z,2084.00
2023-05-13T09:55:04.973Z,2060.00
2023-05-13T09:56:04.957Z,2068.00
2023-05-13T09:57:04.955Z,2080.00
2023-05-13T09:58:04.935Z,2112.00
2023-05-13T09:59:04.984Z,2188.00
2023-05-13T10:00:04.906Z,2260.00
2023-05-13T10:01:04.924Z,2208.00
2023-05-13T10:02:04.884Z,2172.00
2023-05-13T10:03:04.936Z,2112.00
2023-05-13T10:04:04.878Z,2092.00
2023-05-13T10:05:04.856Z,2080.00
2023-05-13T10:06:04.839Z,2104.00
2023-05-13T10:07:04.822Z,2172.00
2023-05-13T10:08:04.809Z,2172.00
2023-05-13T10:09:04.798Z,2228.00
2023-05-13T10:10:04.780Z,2232.00
2023-05-13T10:11:04.765Z,2200.00
2023-05-13T10:12:04.757Z,2276.00
2023-05-13T10:13:04.743Z,2304.00
2023-05-13T10:14:04.730Z,2256.00
2023-05-13T10:15:04.715Z,2088.00
2023-05-13T10:16:04.735Z,2004.00
2023-05-13T10:17:04.773Z,2004.00
2023-05-13T10:18:07.342Z,1980.00
2023-05-13T10:19:04.703Z,2068.00
2023-05-13T10:20:04.648Z,2160.00
2023-05-13T10:21:04.687Z,2336.00
2023-05-13T10:22:04.615Z,2408.00
2023-05-13T10:23:04.601Z,2408.00
2023-05-13T10:24:04.602Z,2448.00
2023-05-13T10:25:04.579Z,2524.00
2023-05-13T10:26:04.569Z,2500.00
2023-05-13T10:27:04.544Z,2468.00
2023-05-13T10:28:04.537Z,2456.00
2023-05-13T10:29:04.528Z,2508.00
2023-05-13T10:30:04.505Z,2508.00
2023-05-13T10:31:04.498Z,2564.00
2023-05-13T10:32:04.548Z,2596.00
2023-05-13T10:33:04.492Z,2744.00
2023-05-13T10:34:04.451Z,2868.00
2023-05-13T10:35:04.471Z,3004.00
2023-05-13T10:36:04.436Z,3076.00
2023-05-13T10:37:04.415Z,2956.00
2023-05-13T10:38:04.398Z,2920.00
2023-05-13T10:39:04.382Z,2876.00
2023-05-13T10:40:04.368Z,2752.00
2023-05-13T10:41:04.356Z,2704.00
2023-05-13T10:42:04.347Z,2732.00
2023-05-13T10:43:04.343Z,2788.00
2023-05-13T10:44:04.319Z,2744.00
2023-05-13T10:45:04.307Z,2700.00
2023-05-13T10:46:04.473Z,2732.00
2023-05-13T10:47:04.281Z,2704.00
2023-05-13T10:48:04.375Z,2716.00
2023-05-13T10:49:04.248Z,2700.00
2023-05-13T10:50:04.234Z,2684.00
2023-05-13T10:51:04.263Z,2704.00
2023-05-13T10:52:04.219Z,2740.00
2023-05-13T10:53:04.186Z,2752.00
2023-05-13T10:54:04.181Z,2776.00
2023-05-13T10:55:04.166Z,2828.00
2023-05-13T10:56:04.154Z,2884.00
2023-05-13T10:57:04.137Z,2932.00
2023-05-13T10:58:04.125Z,3008.00
2023-05-13T10:59:04.112Z,3244.00
2023-05-13T11:00:04.098Z,3560.00
2023-05-13T11:01:04.081Z,3972.00
2023-05-13T11:02:04.228Z,4076.00
2023-05-13T11:03:04.218Z,4224.00
2023-05-13T11:04:04.190Z,4424.00
2023-05-13T11:05:04.038Z,4380.00
2023-05-13T11:06:04.021Z,4144.00
2023-05-13T11:07:04.025Z,3936.00
2023-05-13T11:08:03.996Z,3824.00
2023-05-13T11:09:03.976Z,3848.00
2023-05-13T11:10:03.965Z,3972.00
2023-05-13T11:11:03.948Z,4004.00
2023-05-13T11:12:03.947Z,4192.00
2023-05-13T11:13:03.949Z,4436.00
2023-05-13T11:14:03.914Z,4468.00
2023-05-13T11:15:03.902Z,4324.00
2023-05-13T11:16:03.911Z,4328.00
2023-05-13T11:17:03.867Z,4628.00
2023-05-13T11:18:03.902Z,4828.00
2023-05-13T11:19:03.931Z,4948.00
2023-05-13T11:20:03.829Z,4900.00
2023-05-13T11:21:05.163Z,4836.00
2023-05-13T11:22:03.805Z,4876.00
2023-05-13T11:23:03.817Z,5088.00
2023-05-13T11:24:03.776Z,5292.00
2023-05-13T11:25:03.770Z,5492.00
2023-05-13T11:26:03.753Z,6008.00
2023-05-13T11:27:03.745Z,6220.00
2023-05-13T11:28:03.731Z,6260.00
2023-05-13T11:29:03.713Z,6180.00
2023-05-13T11:30:03.714Z,5924.00
2023-05-13T11:31:03.698Z,5648.00
2023-05-13T11:32:03.695Z,5196.00
2023-05-13T11:33:03.675Z,5040.00
2023-05-13T11:34:03.661Z,5980.00
2023-05-13T11:35:03.639Z,7380.00
2023-05-13T11:36:03.619Z,8840.00
2023-05-13T11:37:03.600Z,9356.00
2023-05-13T11:38:03.605Z,10012.00
2023-05-13T11:39:03.603Z,10428.00
2023-05-13T11:40:03.567Z,10548.00
2023-05-13T11:41:03.566Z,9764.00
2023-05-13T11:42:03.579Z,8236.00
2023-05-13T11:43:03.524Z,5956.00
2023-05-13T11:44:03.506Z,4536.00
2023-05-13T11:45:03.517Z,3912.00
2023-05-13T11:46:03.546Z,3444.00
2023-05-13T11:47:03.473Z,3372.00
2023-05-13T11:48:03.486Z,3200.00
2023-05-13T11:49:04.829Z,2980.00
2023-05-13T11:50:03.427Z,3016.00
2023-05-13T11:51:03.418Z,3264.00
2023-05-13T11:52:03.438Z,3684.00
2023-05-13T11:53:03.383Z,4300.00
2023-05-13T11:54:03.380Z,4916.00
2023-05-13T11:55:03.887Z,5284.00
2023-05-13T11:56:03.356Z,5832.00
2023-05-13T11:57:03.339Z,6304.00
2023-05-13T11:58:03.331Z,6192.00
2023-05-13T11:59:03.309Z,5648.00
2023-05-13T12:00:03.299Z,5484.00
2023-05-13T12:01:03.280Z,4932.00
2023-05-13T12:02:03.304Z,4480.00
2023-05-13T12:03:03.361Z,4784.00
2023-05-13T12:04:03.255Z,5140.00
2023-05-13T12:05:03.262Z,5112.00
2023-05-13T12:06:03.225Z,4908.00
2023-05-13T12:07:03.212Z,4576.00
2023-05-13T12:08:03.210Z,4468.00
2023-05-13T12:09:03.195Z,4440.00
2023-05-13T12:10:03.187Z,4352.00
2023-05-13T12:11:03.240Z,4104.00
2023-05-13T12:12:03.141Z,4072.00
2023-05-13T12:13:03.127Z,4196.00
2023-05-13T12:14:03.109Z,4484.00
2023-05-13T12:15:03.096Z,4664.00
2023-05-13T12:16:03.201Z,5024.00
2023-05-13T12:17:03.071Z,5336.00
2023-05-13T12:18:03.128Z,5188.00
2023-05-13T12:19:03.100Z,4788.00
2023-05-13T12:20:03.058Z,4980.00
2023-05-13T12:21:03.016Z,5272.00
2023-05-13T12:22:05.398Z,5296.00
2023-05-13T12:23:02.997Z,5116.00
2023-05-13T12:24:02.980Z,4896.00
2023-05-13T12:25:02.965Z,5008.00
2023-05-13T12:26:02.960Z,4884.00
2023-05-13T12:27:03.082Z,4736.00
2023-05-13T12:28:02.926Z,4552.00
2023-05-13T12:29:02.920Z,4400.00